createdAt,value
2023-04-29T00:00:44.846Z,9.61
2023-04-29T00:03:11.616Z,9.62
2023-04-29T00:05:38.466Z,9.64
2023-04-29T00:08:05.822Z,9.64
2023-04-29T00:10:33.073Z,9.66
2023-04-29T00:13:00.001Z,9.66
2023-04-29T00:15:26.722Z,9.65
2023-04-29T00:17:53.764Z,9.70
2023-04-29T00:20:20.415Z,9.72
2023-04-29T00:22:47.231Z,9.72
2023-04-29T00:25:13.745Z,9.72
2023-04-29T00:27:40.905Z,9.73
2023-04-29T00:30:08.665Z,9.74
2023-04-29T00:32:35.325Z,9.76
2023-04-29T00:35:02.385Z,9.77
2023-04-29T00:37:29.048Z,9.77
2023-04-29T00:39:55.558Z,9.78
2023-04-29T00:42:22.552Z,9.81
2023-04-29T00:44:49.163Z,9.82
2023-04-29T00:47:15.684Z,9.82
2023-04-29T00:49:42.276Z,9.84
2023-04-29T00:52:11.557Z,9.83
2023-04-29T00:54:39.167Z,9.84
2023-04-29T00:57:06.448Z,9.86
2023-04-29T00:59:34.576Z,9.86
2023-04-29T01:02:04.947Z,9.87
2023-04-29T01:04:31.763Z,9.88
2023-04-29T01:07:14.364Z,9.87
2023-04-29T01:10:09.879Z,9.88
2023-04-29T01:12:36.729Z,9.88
2023-04-29T01:15:17.389Z,9.90
2023-04-29T01:18:00.924Z,9.89
2023-04-29T01:20:28.037Z,9.89
2023-04-29T01:22:54.760Z,9.92
2023-04-29T01:25:21.379Z,9.90
2023-04-29T01:28:16.224Z,9.91
2023-04-29T01:31:25.490Z,9.90
2023-04-29T01:34:14.488Z,9.91
2023-04-29T01:37:35.145Z,9.91
2023-04-29T01:40:16.228Z,9.91
2023-04-29T01:43:12.741Z,9.92
2023-04-29T01:45:42.191Z,9.92
2023-04-29T01:48:09.787Z,9.90
2023-04-29T01:50:36.413Z,9.91
2023-04-29T01:53:02.961Z,9.92
2023-04-29T01:55:29.569Z,9.92
2023-04-29T01:57:56.148Z,9.93
2023-04-29T02:00:22.924Z,9.93
2023-04-29T02:02:49.525Z,9.92
2023-04-29T02:05:16.250Z,9.93
2023-04-29T02:07:44.554Z,9.93
2023-04-29T02:10:12.028Z,9.94
2023-04-29T02:12:38.844Z,9.94
2023-04-29T02:15:05.856Z,9.94
2023-04-29T02:17:34.543Z,9.93
2023-04-29T02:20:01.233Z,9.93
2023-04-29T02:22:27.690Z,9.93
2023-04-29T02:24:54.451Z,9.94
2023-04-29T02:27:21.195Z,9.94
2023-04-29T02:29:47.705Z,9.93
2023-04-29T02:32:16.083Z,9.92
2023-04-29T02:34:42.716Z,9.93
2023-04-29T02:37:09.338Z,9.93
2023-04-29T02:39:35.917Z,9.95
2023-04-29T02:42:03.050Z,9.94
2023-04-29T02:44:30.826Z,9.95
2023-04-29T02:46:58.148Z,9.92
2023-04-29T02:49:25.904Z,9.92
2023-04-29T02:51:52.451Z,9.92
2023-04-29T02:54:19.763Z,9.91
2023-04-29T02:56:46.433Z,9.90
2023-04-29T02:59:12.926Z,9.89
2023-04-29T03:01:39.978Z,9.91
2023-04-29T03:04:06.886Z,9.90
2023-04-29T03:06:33.532Z,9.91
2023-04-29T03:09:00.142Z,9.89
2023-04-29T03:11:26.686Z,9.88
2023-04-29T03:13:54.094Z,9.90
2023-04-29T03:16:21.502Z,9.89
2023-04-29T03:18:48.585Z,9.91
2023-04-29T03:21:15.216Z,9.89
2023-04-29T03:23:42.300Z,9.90
2023-04-29T03:26:09.172Z,9.89
2023-04-29T03:28:35.769Z,9.90
2023-04-29T03:31:03.054Z,9.88
2023-04-29T03:33:29.646Z,9.90
2023-04-29T03:35:56.167Z,9.90
2023-04-29T03:38:22.810Z,9.90
2023-04-29T03:40:49.509Z,9.90
2023-04-29T03:43:16.105Z,9.90
2023-04-29T03:45:42.641Z,9.89
2023-04-29T03:48:09.606Z,9.91
2023-04-29T03:50:37.019Z,9.90
2023-04-29T03:53:03.621Z,9.90
2023-04-29T03:55:30.232Z,9.91
2023-04-29T03:57:56.734Z,9.92
2023-04-29T04:00:24.071Z,9.91
2023-04-29T04:02:50.742Z,9.91
2023-04-29T04:05:19.957Z,9.92
2023-04-29T04:07:46.882Z,9.90
2023-04-29T04:10:13.462Z,9.91
2023-04-29T04:12:40.876Z,9.92
2023-04-29T04:15:15.558Z,9.90
2023-04-29T04:17:42.066Z,9.90
2023-04-29T04:20:09.437Z,9.91
2023-04-29T04:22:36.227Z,9.89
2023-04-29T04:25:02.821Z,9.89
2023-04-29T04:27:30.017Z,9.87
2023-04-29T04:29:56.595Z,9.84
2023-04-29T04:32:23.732Z,9.80
2023-04-29T04:34:50.766Z,9.75
2023-04-29T04:37:17.687Z,9.74
2023-04-29T04:39:44.299Z,9.74
2023-04-29T04:42:11.110Z,9.65
2023-04-29T04:44:38.231Z,9.62
2023-04-29T04:47:06.309Z,9.62
2023-04-29T04:49:32.879Z,9.58
2023-04-29T04:51:59.454Z,9.56
2023-04-29T04:54:26.315Z,9.57
2023-04-29T04:56:52.808Z,9.55
2023-04-29T04:59:19.337Z,9.49
2023-04-29T05:01:45.865Z,9.45
2023-04-29T05:04:12.529Z,9.44
2023-04-29T05:06:39.241Z,9.45
2023-04-29T05:09:06.426Z,9.40
2023-04-29T05:11:33.015Z,9.33
2023-04-29T05:14:00.049Z,9.32
2023-04-29T05:16:26.559Z,9.30
2023-04-29T05:18:53.066Z,9.27
2023-04-29T05:21:19.570Z,9.22
2023-04-29T05:23:46.093Z,9.19
2023-04-29T05:26:12.724Z,9.20
2023-04-29T05:28:39.368Z,9.15
2023-04-29T05:31:06.349Z,9.16
2023-04-29T05:33:33.037Z,9.15
2023-04-29T05:35:59.571Z,9.14
2023-04-29T05:38:29.052Z,9.16
2023-04-29T05:40:56.434Z,9.20
2023-04-29T05:43:22.955Z,9.18
2023-04-29T05:45:49.741Z,9.26
2023-04-29T05:48:16.674Z,9.29
2023-04-29T05:50:43.408Z,9.34
2023-04-29T05:53:10.004Z,9.38
2023-04-29T05:55:36.489Z,9.40
2023-04-29T05:58:03.255Z,9.46
2023-04-29T06:00:29.811Z,9.49
2023-04-29T06:02:59.074Z,9.52
2023-04-29T06:05:27.039Z,9.54
2023-04-29T06:07:54.104Z,9.59
2023-04-29T06:10:20.756Z,9.64
2023-04-29T06:12:51.556Z,9.69
2023-04-29T06:15:18.104Z,9.75
2023-04-29T06:17:45.097Z,9.79
2023-04-29T06:20:12.217Z,9.84
2023-04-29T06:22:38.711Z,9.88
2023-04-29T06:25:05.564Z,9.93
2023-04-29T06:27:32.320Z,9.98
2023-04-29T06:29:58.996Z,10.04
2023-04-29T06:32:25.515Z,10.10
2023-04-29T06:34:52.135Z,10.14
2023-04-29T06:37:18.675Z,10.20
2023-04-29T06:39:45.255Z,10.25
2023-04-29T06:42:12.036Z,10.29
2023-04-29T06:44:39.124Z,10.37
2023-04-29T06:47:05.728Z,10.40
2023-04-29T06:49:32.361Z,10.44
2023-04-29T06:51:59.612Z,10.49
2023-04-29T06:54:27.691Z,10.53
2023-04-29T06:56:54.565Z,10.61
2023-04-29T06:59:21.053Z,10.66
2023-04-29T07:01:49.606Z,10.72
2023-04-29T07:04:16.477Z,10.79
2023-04-29T07:06:46.823Z,10.86
2023-04-29T07:09:14.500Z,10.95
2023-04-29T07:11:41.540Z,11.02
2023-04-29T07:14:08.772Z,11.09
2023-04-29T07:16:35.572Z,11.16
2023-04-29T07:19:02.252Z,11.23
2023-04-29T07:21:28.872Z,11.31
2023-04-29T07:23:55.727Z,11.39
2023-04-29T07:26:22.328Z,11.46
2023-04-29T07:28:49.952Z,11.52
2023-04-29T07:31:16.812Z,11.59
2023-04-29T07:33:45.368Z,11.66
2023-04-29T07:36:12.065Z,11.74
2023-04-29T07:38:38.588Z,11.79
2023-04-29T07:41:05.291Z,11.86
2023-04-29T07:43:31.983Z,11.94
2023-04-29T07:45:58.579Z,11.99
2023-04-29T07:48:25.237Z,12.07
2023-04-29T07:50:51.819Z,12.13
2023-04-29T07:53:18.535Z,12.21
2023-04-29T07:55:45.112Z,12.27
2023-04-29T07:58:11.679Z,12.33
2023-04-29T08:00:38.825Z,12.41
2023-04-29T08:03:05.552Z,12.47
2023-04-29T08:05:32.366Z,12.56
2023-04-29T08:07:59.090Z,12.64
2023-04-29T08:10:26.193Z,12.71
2023-04-29T08:12:52.687Z,12.79
2023-04-29T08:15:20.325Z,12.88
2023-04-29T08:17:47.210Z,12.96
2023-04-29T08:20:13.845Z,13.03
2023-04-29T08:22:40.665Z,13.11
2023-04-29T08:25:07.782Z,13.20
2023-04-29T08:27:34.410Z,13.29
2023-04-29T08:30:00.968Z,13.37
2023-04-29T08:32:27.516Z,13.44
2023-04-29T08:34:54.431Z,13.53
2023-04-29T08:37:21.168Z,13.61
2023-04-29T08:39:48.067Z,13.69
2023-04-29T08:42:14.773Z,13.78
2023-04-29T08:44:42.105Z,13.86
2023-04-29T08:47:09.210Z,13.95
2023-04-29T08:49:38.151Z,14.04
2023-04-29T08:52:04.986Z,14.15
2023-04-29T08:54:32.898Z,14.24
2023-04-29T08:57:00.494Z,14.35
2023-04-29T08:59:28.348Z,14.48
2023-04-29T09:01:56.348Z,14.59
2023-04-29T09:05:03.901Z,14.72
2023-04-29T09:07:31.915Z,14.84
2023-04-29T09:09:59.662Z,14.95
2023-04-29T09:12:26.286Z,15.07
2023-04-29T09:14:53.040Z,15.16
2023-04-29T09:17:20.469Z,15.25
2023-04-29T09:19:47.034Z,15.32
2023-04-29T09:22:13.552Z,15.42
2023-04-29T09:24:40.133Z,15.52
2023-04-29T09:27:06.717Z,15.60
2023-04-29T09:29:34.675Z,15.69
2023-04-29T09:32:01.403Z,15.78
2023-04-29T09:34:33.192Z,15.88
2023-04-29T09:36:59.824Z,15.97
2023-04-29T09:39:26.485Z,16.08
2023-04-29T09:41:52.905Z,16.16
2023-04-29T09:44:24.775Z,16.23
2023-04-29T09:47:02.446Z,16.31
2023-04-29T09:49:32.627Z,16.38
2023-04-29T09:52:00.993Z,16.47
2023-04-29T09:54:29.648Z,16.61
2023-04-29T09:56:57.928Z,16.78
2023-04-29T09:59:24.862Z,16.99
2023-04-29T10:01:53.349Z,17.23
2023-04-29T10:04:21.465Z,17.47
2023-04-29T10:06:53.182Z,17.71
2023-04-29T10:09:21.229Z,17.95
2023-04-29T10:11:49.548Z,18.19
2023-04-29T10:14:18.450Z,18.39
2023-04-29T10:17:02.304Z,18.58
2023-04-29T10:19:38.872Z,18.76
2023-04-29T10:22:10.040Z,18.95
2023-04-29T10:24:37.812Z,19.14
2023-04-29T10:27:07.251Z,19.34
2023-04-29T10:29:37.040Z,19.53
2023-04-29T10:32:04.711Z,19.67
2023-04-29T10:34:33.677Z,19.78
2023-04-29T10:37:00.540Z,19.87
2023-04-29T10:39:50.663Z,19.93
2023-04-29T10:42:28.822Z,19.98
2023-04-29T10:45:18.641Z,20.01
2023-04-29T10:48:05.884Z,20.07
2023-04-29T10:50:59.922Z,20.11
2023-04-29T10:53:27.787Z,20.20
2023-04-29T10:55:57.831Z,20.30
2023-04-29T10:58:42.277Z,19.97
2023-04-29T11:01:11.734Z,20.10
2023-04-29T11:03:48.955Z,20.25
2023-04-29T11:06:16.668Z,20.35
2023-04-29T11:08:43.501Z,20.45
2023-04-29T11:11:10.129Z,20.56
2023-04-29T11:13:40.759Z,20.69
2023-04-29T11:16:11.570Z,20.83
2023-04-29T11:19:07.622Z,21.01
2023-04-29T11:21:37.993Z,21.19
2023-04-29T11:24:06.537Z,21.38
2023-04-29T11:26:36.657Z,21.57
2023-04-29T11:29:04.838Z,21.78
2023-04-29T11:31:32.702Z,21.98
2023-04-29T11:34:00.365Z,22.17
2023-04-29T11:36:27.628Z,22.32
2023-04-29T11:38:54.215Z,22.46
2023-04-29T11:41:22.469Z,22.61
2023-04-29T11:44:03.529Z,22.74
2023-04-29T11:46:34.285Z,22.85
2023-04-29T11:49:01.956Z,22.91
2023-04-29T11:51:28.882Z,22.92
2023-04-29T11:53:58.039Z,22.90
2023-04-29T11:56:31.048Z,22.88
2023-04-29T11:58:58.426Z,22.83
2023-04-29T12:01:27.083Z,22.78
2023-04-29T12:03:59.368Z,22.71
2023-04-29T12:06:30.290Z,22.67
2023-04-29T12:08:59.275Z,22.62
2023-04-29T12:11:26.760Z,22.57
2023-04-29T12:13:53.970Z,22.56
2023-04-29T12:16:20.834Z,22.66
2023-04-29T12:18:47.515Z,22.83
2023-04-29T12:21:14.084Z,23.02
2023-04-29T12:23:41.357Z,23.22
2023-04-29T12:26:09.112Z,23.38
2023-04-29T12:28:35.691Z,23.55
2023-04-29T12:31:02.215Z,23.72
2023-04-29T12:33:30.133Z,23.92
2023-04-29T12:35:58.974Z,24.09
2023-04-29T12:38:32.246Z,24.28
2023-04-29T12:41:01.379Z,24.49
2023-04-29T12:43:28.986Z,24.66
2023-04-29T12:46:04.980Z,24.82
2023-04-29T12:48:38.713Z,24.92
2023-04-29T12:51:05.577Z,25.00
2023-04-29T12:53:33.194Z,25.04
2023-04-29T12:55:59.915Z,25.09
2023-04-29T12:58:29.674Z,25.21
2023-04-29T13:00:56.823Z,25.36
2023-04-29T13:03:23.970Z,25.55
2023-04-29T13:05:53.567Z,25.78
2023-04-29T13:08:21.153Z,25.96
2023-04-29T13:10:47.652Z,26.01
2023-04-29T13:13:14.188Z,26.00
2023-04-29T13:15:40.676Z,25.95
2023-04-29T13:18:07.545Z,25.90
2023-04-29T13:20:40.366Z,25.89
2023-04-29T13:23:07.956Z,25.93
2023-04-29T13:25:34.505Z,25.92
2023-04-29T13:28:00.993Z,25.88
2023-04-29T13:30:27.469Z,25.78
2023-04-29T13:32:56.696Z,25.70
2023-04-29T13:35:26.373Z,25.59
2023-04-29T13:37:52.865Z,25.50
2023-04-29T13:40:21.216Z,25.40
2023-04-29T13:42:50.500Z,25.35
2023-04-29T13:45:23.342Z,25.36
2023-04-29T13:50:57.511Z,25.38
2023-04-29T14:03:04.304Z,25.25
2023-04-29T14:05:31.071Z,25.19
2023-04-29T14:07:57.796Z,25.17
2023-04-29T14:10:24.291Z,25.15
2023-04-29T14:12:50.936Z,25.14
2023-04-29T14:15:17.579Z,25.21
2023-04-29T14:17:44.713Z,25.29
2023-04-29T14:20:11.688Z,25.34
2023-04-29T14:22:38.223Z,25.35
2023-04-29T14:25:05.141Z,25.31
2023-04-29T14:27:31.674Z,25.24
2023-04-29T14:29:58.167Z,25.14
2023-04-29T14:32:24.780Z,25.02
2023-04-29T14:34:51.432Z,24.90
2023-04-29T14:37:18.034Z,24.80
2023-04-29T14:39:44.510Z,24.73
2023-04-29T14:42:11.127Z,24.63
2023-04-29T14:44:37.643Z,24.55
2023-04-29T14:47:04.321Z,24.50
2023-04-29T14:49:31.795Z,24.49
2023-04-29T14:51:58.554Z,24.51
2023-04-29T14:54:27.114Z,24.58
2023-04-29T14:56:53.904Z,24.65
2023-04-29T14:59:20.421Z,24.68
2023-04-29T15:01:47.573Z,24.68
2023-04-29T15:04:14.282Z,24.66
2023-04-29T15:06:40.962Z,24.64
2023-04-29T15:09:07.963Z,24.58
2023-04-29T15:11:34.456Z,24.55
2023-04-29T15:14:01.188Z,24.51
2023-04-29T15:16:28.733Z,24.48
2023-04-29T15:18:55.396Z,24.45
2023-04-29T15:21:22.264Z,24.39
2023-04-29T15:23:48.783Z,24.33
2023-04-29T15:26:15.391Z,24.26
2023-04-29T15:28:43.349Z,24.19
2023-04-29T15:31:10.132Z,24.10
2023-04-29T15:33:36.787Z,24.02
2023-04-29T15:36:03.569Z,23.93
2023-04-29T15:38:30.185Z,23.83
2023-04-29T15:41:01.003Z,23.73
2023-04-29T15:43:28.162Z,23.59
2023-04-29T15:45:54.909Z,23.47
2023-04-29T15:48:21.831Z,23.33
2023-04-29T15:50:48.402Z,23.13
2023-04-29T15:53:14.901Z,22.94
2023-04-29T15:55:41.422Z,22.76
2023-04-29T15:58:07.948Z,22.54
2023-04-29T16:00:34.518Z,22.27
2023-04-29T16:03:01.197Z,21.99
2023-04-29T16:05:27.897Z,21.75
2023-04-29T16:07:54.390Z,21.53
2023-04-29T16:10:21.339Z,21.34
2023-04-29T16:12:48.855Z,21.18
2023-04-29T16:15:15.524Z,21.04
2023-04-29T16:17:42.089Z,20.92
2023-04-29T16:20:09.015Z,20.74
2023-04-29T16:22:35.589Z,20.56
2023-04-29T16:25:03.947Z,20.43
2023-04-29T16:27:30.738Z,20.31
2023-04-29T16:29:57.350Z,20.26
2023-04-29T16:32:24.100Z,20.16
2023-04-29T16:34:51.054Z,20.06
2023-04-29T16:37:17.692Z,19.95
2023-04-29T16:39:44.238Z,19.83
2023-04-29T16:42:10.999Z,19.71
2023-04-29T16:44:37.606Z,19.61
2023-04-29T16:47:04.284Z,19.48
2023-04-29T16:49:31.376Z,19.33
2023-04-29T16:51:57.986Z,19.24
2023-04-29T16:54:24.577Z,19.15
2023-04-29T16:56:51.466Z,19.06
2023-04-29T16:59:18.155Z,19.00
2023-04-29T17:01:44.996Z,18.92
2023-04-29T17:04:11.816Z,18.86
2023-04-29T17:06:40.570Z,18.78
2023-04-29T17:09:07.523Z,18.73
2023-04-29T17:11:34.342Z,18.65
2023-04-29T17:14:00.859Z,18.58
2023-04-29T17:16:27.477Z,18.54
2023-04-29T17:18:54.399Z,18.49
2023-04-29T17:21:24.722Z,18.44
2023-04-29T17:23:53.337Z,18.37
2023-04-29T17:26:20.836Z,18.30
2023-04-29T17:28:47.878Z,18.26
2023-04-29T17:31:15.393Z,18.18
2023-04-29T17:33:54.577Z,18.11
2023-04-29T17:36:22.553Z,18.03
2023-04-29T17:38:49.113Z,17.98
2023-04-29T17:41:15.689Z,17.97
2023-04-29T17:43:42.149Z,17.93
2023-04-29T17:46:08.710Z,17.88
2023-04-29T17:48:35.406Z,17.89
2023-04-29T17:51:03.199Z,17.91
2023-04-29T17:53:30.753Z,17.84
2023-04-29T17:55:58.264Z,17.83
2023-04-29T17:58:24.863Z,17.78
2023-04-29T18:00:52.313Z,17.78
2023-04-29T18:03:18.936Z,17.74
2023-04-29T18:05:47.336Z,17.67
2023-04-29T18:08:13.814Z,17.62
2023-04-29T18:10:40.775Z,17.55
2023-04-29T18:13:07.442Z,17.53
2023-04-29T18:15:33.967Z,17.48
2023-04-29T18:18:00.658Z,17.45
2023-04-29T18:20:27.214Z,17.40
2023-04-29T18:22:53.818Z,17.29
2023-04-29T18:25:20.606Z,17.24
2023-04-29T18:27:47.161Z,17.14
2023-04-29T18:30:14.222Z,17.11
2023-04-29T18:32:41.057Z,17.06
2023-04-29T18:35:08.064Z,16.99
2023-04-29T18:37:34.808Z,16.92
2023-04-29T18:40:01.334Z,16.90
2023-04-29T18:42:27.997Z,16.85
2023-04-29T18:44:55.078Z,16.81
2023-04-29T18:47:21.815Z,16.79
2023-04-29T18:49:48.358Z,16.73
2023-04-29T18:52:14.860Z,16.71
2023-04-29T18:54:41.392Z,16.63
2023-04-29T18:57:07.958Z,16.60
2023-04-29T18:59:37.652Z,16.54
2023-04-29T19:02:06.167Z,16.48
2023-04-29T19:04:33.705Z,16.41
2023-04-29T19:07:00.622Z,16.40
2023-04-29T19:09:28.088Z,16.35
2023-04-29T19:11:55.708Z,16.28
2023-04-29T19:14:22.213Z,16.24
2023-04-29T19:16:48.733Z,16.21
2023-04-29T19:21:42.030Z,16.14
2023-04-29T19:24:08.726Z,16.09
2023-04-29T19:26:36.471Z,16.05
2023-04-29T19:29:04.558Z,16.00
2023-04-29T19:31:31.626Z,15.94
2023-04-29T19:33:58.612Z,15.92
2023-04-29T19:36:27.602Z,15.85
2023-04-29T19:38:54.158Z,15.81
2023-04-29T19:41:20.938Z,15.79
2023-04-29T19:43:47.425Z,15.76
2023-04-29T19:46:14.694Z,15.70
2023-04-29T19:48:41.440Z,15.68
2023-04-29T19:51:09.249Z,15.64
2023-04-29T19:53:36.488Z,15.61
2023-04-29T19:56:03.023Z,15.57
2023-04-29T19:58:29.534Z,15.55
2023-04-29T20:00:56.148Z,15.51
2023-04-29T20:03:22.842Z,15.45
2023-04-29T20:05:49.352Z,15.42
2023-04-29T20:08:16.450Z,15.40
2023-04-29T20:10:42.984Z,15.39
2023-04-29T20:13:09.521Z,15.30
2023-04-29T20:15:36.389Z,15.28
2023-04-29T20:18:02.950Z,15.20
2023-04-29T20:20:29.533Z,15.16
2023-04-29T20:22:58.486Z,15.16
2023-04-29T20:25:26.318Z,15.12
2023-04-29T20:27:57.503Z,15.11
2023-04-29T20:30:24.205Z,15.05
2023-04-29T20:32:50.744Z,15.04
2023-04-29T20:35:18.002Z,14.99
2023-04-29T20:37:44.595Z,15.01
2023-04-29T20:40:11.622Z,14.97
2023-04-29T20:42:38.283Z,14.93
2023-04-29T20:45:06.824Z,14.91
2023-04-29T20:47:35.153Z,14.88
2023-04-29T20:50:03.626Z,14.87
2023-04-29T20:52:30.857Z,14.85
2023-04-29T20:54:58.694Z,14.79
2023-04-29T20:57:25.238Z,14.76
2023-04-29T20:59:52.252Z,14.73
2023-04-29T21:02:19.061Z,14.72
2023-04-29T21:04:46.247Z,14.74
2023-04-29T21:07:12.850Z,14.65
2023-04-29T21:09:39.375Z,14.62
2023-04-29T21:12:06.156Z,14.63
2023-04-29T21:14:33.447Z,14.62
2023-04-29T21:17:00.201Z,14.57
2023-04-29T21:19:26.839Z,14.52
2023-04-29T21:21:53.379Z,14.50
2023-04-29T21:24:19.874Z,14.49
2023-04-29T21:26:46.474Z,14.48
2023-04-29T21:29:12.988Z,14.46
2023-04-29T21:31:39.579Z,14.44
2023-04-29T21:34:06.434Z,14.41
2023-04-29T21:36:33.165Z,14.37
2023-04-29T21:38:59.650Z,14.33
2023-04-29T21:41:29.256Z,14.29
2023-04-29T21:43:58.646Z,14.26
2023-04-29T21:46:28.027Z,14.24
2023-04-29T21:48:57.173Z,14.22
2023-04-29T21:51:24.021Z,14.21
2023-04-29T21:53:51.358Z,14.22
2023-04-29T21:56:18.195Z,14.19
2023-04-29T21:58:44.959Z,14.13
2023-04-29T22:01:29.537Z,14.13
2023-04-29T22:03:57.181Z,14.09
2023-04-29T22:06:24.611Z,14.10
2023-04-29T22:08:51.348Z,14.09
2023-04-29T22:11:18.787Z,14.08
2023-04-29T22:13:45.705Z,14.03
2023-04-29T22:16:12.316Z,14.00
2023-04-29T22:18:38.962Z,13.99
2023-04-29T22:21:05.805Z,13.97
2023-04-29T22:23:32.369Z,13.96
2023-04-29T22:25:58.871Z,13.93
2023-04-29T22:28:25.387Z,13.91
2023-04-29T22:30:52.202Z,13.87
2023-04-29T22:33:18.751Z,13.86
2023-04-29T22:35:45.414Z,13.85
2023-04-29T22:38:12.677Z,13.85
2023-04-29T22:40:39.192Z,13.82
2023-04-29T22:43:05.799Z,13.80
2023-04-29T22:45:32.433Z,13.77
2023-04-29T22:47:58.962Z,13.75
2023-04-29T22:50:25.548Z,13.73
2023-04-29T22:52:52.063Z,13.73
2023-04-29T22:55:18.721Z,13.69
2023-04-29T22:57:45.212Z,13.69
2023-04-29T23:00:12.844Z,13.67
2023-04-29T23:02:40.141Z,13.66
2023-04-29T23:05:07.657Z,13.64
2023-04-29T23:07:34.239Z,13.61
2023-04-29T23:10:00.834Z,13.58
2023-04-29T23:12:27.360Z,13.56
2023-04-29T23:14:53.936Z,13.57
2023-04-29T23:17:20.462Z,13.55
2023-04-29T23:19:46.942Z,13.52
2023-04-29T23:22:13.487Z,13.50
2023-04-29T23:24:40.297Z,13.47
2023-04-29T23:27:06.772Z,13.46
2023-04-29T23:29:36.419Z,13.42
2023-04-29T23:32:03.312Z,13.37
2023-04-29T23:34:29.801Z,13.35
2023-04-29T23:36:56.360Z,13.35
2023-04-29T23:39:22.986Z,13.35
2023-04-29T23:41:49.516Z,13.32
2023-04-29T23:44:16.011Z,13.31
2023-04-29T23:46:42.656Z,13.25
2023-04-29T23:49:10.451Z,13.21
2023-04-29T23:51:36.944Z,13.16
2023-04-29T23:54:03.695Z,13.16
2023-04-29T23:56:31.538Z,13.15
2023-04-29T23:58:58.305Z,13.09
